createdAt,value
2022-11-26T00:00:57.573Z,7.55
2022-11-26T00:01:57.554Z,7.55
2022-11-26T00:02:57.605Z,7.62
2022-11-26T00:03:57.455Z,7.47
2022-11-26T00:04:57.389Z,7.44
2022-11-26T00:05:57.338Z,7.58
2022-11-26T00:06:57.331Z,7.53
2022-11-26T00:07:57.346Z,7.40
2022-11-26T00:08:57.200Z,7.40
2022-11-26T00:09:57.151Z,7.37
2022-11-26T00:10:57.106Z,7.26
2022-11-26T00:11:57.058Z,7.23
2022-11-26T00:12:57.037Z,7.25
2022-11-26T00:13:56.962Z,7.11
2022-11-26T00:14:56.925Z,7.13
2022-11-26T00:15:56.867Z,7.11
2022-11-26T00:16:56.853Z,7.14
2022-11-26T00:17:56.772Z,7.11
2022-11-26T00:18:56.746Z,7.14
2022-11-26T00:19:56.684Z,7.11
2022-11-26T00:20:56.634Z,7.07
2022-11-26T00:21:56.583Z,7.08
2022-11-26T00:22:56.536Z,7.14
2022-11-26T00:23:56.490Z,7.10
2022-11-26T00:24:56.465Z,7.07
2022-11-26T00:25:56.397Z,7.13
2022-11-26T00:26:56.352Z,7.14
2022-11-26T00:27:56.403Z,7.19
2022-11-26T00:28:56.258Z,7.13
2022-11-26T00:29:56.204Z,7.22
2022-11-26T00:30:56.185Z,7.21
2022-11-26T00:31:56.222Z,7.23
2022-11-26T00:32:56.066Z,7.26
2022-11-26T00:33:56.023Z,7.25
2022-11-26T00:34:55.974Z,7.26
2022-11-26T00:35:55.964Z,7.22
2022-11-26T00:36:56.067Z,7.22
2022-11-26T00:37:55.830Z,7.22
2022-11-26T00:38:55.826Z,7.23
2022-11-26T00:39:55.739Z,7.23
2022-11-26T00:40:55.695Z,7.28
2022-11-26T00:41:55.646Z,7.32
2022-11-26T00:43:01.269Z,7.29
2022-11-26T00:43:55.550Z,7.31
2022-11-26T00:44:55.508Z,7.26
2022-11-26T00:45:55.509Z,7.40
2022-11-26T00:46:55.433Z,7.36
2022-11-26T00:47:55.388Z,7.44
2022-11-26T00:48:55.317Z,7.43
2022-11-26T00:49:55.269Z,7.40
2022-11-26T00:50:55.252Z,7.51
2022-11-26T00:51:55.215Z,7.55
2022-11-26T00:52:55.137Z,7.55
2022-11-26T00:53:55.084Z,7.61
2022-11-26T00:54:55.049Z,7.53
2022-11-26T00:55:54.992Z,7.47
2022-11-26T00:56:54.968Z,7.56
2022-11-26T00:57:54.896Z,7.58
2022-11-26T00:58:54.849Z,7.56
2022-11-26T00:59:54.811Z,7.48
2022-11-26T01:00:54.847Z,7.53
2022-11-26T01:01:54.792Z,7.64
2022-11-26T01:02:54.685Z,7.55
2022-11-26T01:03:54.610Z,7.56
2022-11-26T01:04:54.566Z,7.58
2022-11-26T01:05:54.520Z,7.55
2022-11-26T01:06:54.474Z,7.51
2022-11-26T01:07:54.500Z,7.53
2022-11-26T01:08:54.414Z,7.59
2022-11-26T01:09:54.331Z,7.59
2022-11-26T01:10:54.291Z,7.62
2022-11-26T01:11:54.654Z,7.72
2022-11-26T01:12:54.206Z,7.66
2022-11-26T01:13:54.146Z,7.69
2022-11-26T01:14:54.123Z,7.74
2022-11-26T01:15:54.089Z,7.64
2022-11-26T01:16:54.095Z,7.72
2022-11-26T01:17:53.954Z,7.77
2022-11-26T01:18:53.915Z,7.77
2022-11-26T01:19:53.883Z,7.74
2022-11-26T01:20:53.818Z,7.74
2022-11-26T01:21:53.777Z,7.75
2022-11-26T01:22:53.728Z,7.72
2022-11-26T01:23:53.674Z,7.80
2022-11-26T01:24:53.632Z,7.77
2022-11-26T01:25:53.610Z,7.72
2022-11-26T01:26:53.533Z,7.88
2022-11-26T01:27:53.487Z,7.84
2022-11-26T01:28:53.459Z,7.88
2022-11-26T01:29:53.396Z,7.85
2022-11-26T01:30:53.352Z,7.84
2022-11-26T01:31:53.352Z,7.77
2022-11-26T01:32:53.255Z,7.87
2022-11-26T01:33:53.205Z,7.80
2022-11-26T01:34:53.194Z,7.77
2022-11-26T01:35:53.114Z,7.77
2022-11-26T01:36:53.067Z,7.69
2022-11-26T01:37:53.018Z,7.70
2022-11-26T01:38:52.974Z,7.72
2022-11-26T01:39:52.933Z,7.75
2022-11-26T01:40:52.910Z,7.80
2022-11-26T01:41:52.838Z,7.78
2022-11-26T01:42:52.787Z,7.72
2022-11-26T01:43:52.769Z,7.74
2022-11-26T01:44:52.694Z,7.66
2022-11-26T01:45:52.676Z,7.70
2022-11-26T01:46:52.612Z,7.67
2022-11-26T01:47:52.553Z,7.61
2022-11-26T01:48:52.523Z,7.59
2022-11-26T01:49:52.465Z,7.55
2022-11-26T01:50:52.413Z,7.61
2022-11-26T01:51:52.369Z,7.62
2022-11-26T01:52:52.323Z,7.46
2022-11-26T01:53:52.274Z,7.50
2022-11-26T01:54:52.254Z,7.51
2022-11-26T01:55:52.219Z,7.50
2022-11-26T01:56:52.139Z,7.51
2022-11-26T01:57:52.103Z,7.51
2022-11-26T01:58:52.040Z,7.53
2022-11-26T01:59:51.991Z,7.59
2022-11-26T02:00:51.966Z,7.53
2022-11-26T02:01:51.950Z,7.59
2022-11-26T02:02:51.852Z,7.44
2022-11-26T02:03:51.836Z,7.55
2022-11-26T02:04:51.756Z,7.47
2022-11-26T02:05:51.715Z,7.46
2022-11-26T02:06:51.664Z,7.44
2022-11-26T02:07:51.692Z,7.48
2022-11-26T02:08:51.564Z,7.39
2022-11-26T02:09:51.564Z,7.53
2022-11-26T02:10:51.473Z,7.55
2022-11-26T02:11:51.428Z,7.51
2022-11-26T02:12:51.381Z,7.43
2022-11-26T02:13:51.331Z,7.55
2022-11-26T02:14:51.295Z,7.50
2022-11-26T02:15:51.274Z,7.56
2022-11-26T02:16:51.263Z,7.59
2022-11-26T02:17:51.147Z,7.50
2022-11-26T02:18:51.106Z,7.53
2022-11-26T02:19:51.052Z,7.55
2022-11-26T02:20:51.008Z,7.44
2022-11-26T02:21:50.989Z,7.44
2022-11-26T02:22:50.912Z,7.44
2022-11-26T02:23:50.870Z,7.40
2022-11-26T02:24:50.816Z,7.58
2022-11-26T02:25:50.797Z,7.43
2022-11-26T02:26:50.737Z,7.46
2022-11-26T02:27:50.676Z,7.47
2022-11-26T02:28:50.629Z,7.43
2022-11-26T02:29:50.598Z,7.43
2022-11-26T02:30:50.541Z,7.56
2022-11-26T02:31:50.544Z,7.59
2022-11-26T02:32:50.448Z,7.67
2022-11-26T02:33:50.399Z,7.69
2022-11-26T02:34:50.347Z,7.70
2022-11-26T02:35:50.332Z,7.72
2022-11-26T02:36:50.284Z,7.78
2022-11-26T02:37:50.210Z,7.70
2022-11-26T02:38:50.166Z,7.83
2022-11-26T02:39:50.117Z,7.91
2022-11-26T02:40:50.070Z,7.91
2022-11-26T02:41:50.017Z,7.93
2022-11-26T02:42:50.023Z,7.85
2022-11-26T02:43:49.939Z,7.95
2022-11-26T02:44:49.886Z,7.99
2022-11-26T02:45:49.883Z,8.05
2022-11-26T02:46:49.792Z,7.91
2022-11-26T02:47:49.747Z,8.02
2022-11-26T02:48:49.718Z,7.91
2022-11-26T02:49:49.657Z,7.90
2022-11-26T02:50:49.601Z,7.93
2022-11-26T02:51:49.586Z,7.85
2022-11-26T02:52:49.513Z,7.85
2022-11-26T02:53:49.464Z,7.88
2022-11-26T02:54:49.424Z,7.84
2022-11-26T02:55:49.372Z,7.78
2022-11-26T02:56:49.321Z,7.77
2022-11-26T02:57:49.306Z,7.80
2022-11-26T02:58:49.230Z,7.74
2022-11-26T02:59:49.181Z,7.77
2022-11-26T03:00:49.175Z,7.72
2022-11-26T03:01:49.089Z,7.72
2022-11-26T03:02:49.064Z,7.69
2022-11-26T03:03:49.052Z,7.75
2022-11-26T03:04:48.948Z,7.66
2022-11-26T03:05:48.903Z,7.70
2022-11-26T03:06:48.854Z,7.70
2022-11-26T03:07:48.922Z,7.59
2022-11-26T03:08:48.761Z,7.70
2022-11-26T03:09:48.712Z,7.72
2022-11-26T03:10:48.668Z,7.67
2022-11-26T03:11:48.694Z,7.64
2022-11-26T03:12:48.576Z,7.64
2022-11-26T03:13:48.523Z,7.69
2022-11-26T03:14:48.480Z,7.72
2022-11-26T03:15:48.429Z,7.77
2022-11-26T03:16:48.423Z,7.78
2022-11-26T03:17:48.377Z,7.78
2022-11-26T03:18:48.293Z,7.66
2022-11-26T03:19:48.243Z,7.72
2022-11-26T03:20:51.048Z,7.72
2022-11-26T03:21:48.148Z,7.77
2022-11-26T03:22:48.106Z,7.74
2022-11-26T03:23:48.086Z,7.77
2022-11-26T03:24:48.010Z,7.72
2022-11-26T03:25:47.966Z,7.75
2022-11-26T03:26:47.917Z,7.72
2022-11-26T03:27:47.871Z,7.80
2022-11-26T03:28:47.855Z,7.64
2022-11-26T03:29:47.774Z,7.72
2022-11-26T03:30:47.732Z,7.75
2022-11-26T03:31:47.758Z,7.81
2022-11-26T03:32:47.644Z,7.84
2022-11-26T03:33:47.585Z,7.91
2022-11-26T03:34:47.720Z,7.91
2022-11-26T03:35:47.494Z,7.87
2022-11-26T03:36:47.447Z,7.84
2022-11-26T03:37:47.404Z,7.85
2022-11-26T03:38:47.364Z,7.91
2022-11-26T03:39:47.309Z,7.84
2022-11-26T03:40:47.281Z,7.87
2022-11-26T03:41:47.217Z,7.88
2022-11-26T03:42:47.171Z,7.80
2022-11-26T03:43:47.123Z,7.87
2022-11-26T03:44:47.072Z,7.85
2022-11-26T03:45:47.062Z,7.70
2022-11-26T03:46:47.170Z,7.80
2022-11-26T03:47:46.939Z,7.80
2022-11-26T03:48:46.885Z,7.62
2022-11-26T03:49:46.840Z,7.64
2022-11-26T03:50:46.829Z,7.66
2022-11-26T03:51:46.745Z,7.64
2022-11-26T03:52:46.817Z,7.75
2022-11-26T03:53:46.652Z,7.75
2022-11-26T03:54:46.604Z,7.64
2022-11-26T03:55:46.562Z,7.75
2022-11-26T03:56:46.539Z,7.74
2022-11-26T03:57:46.461Z,7.64
2022-11-26T03:58:46.416Z,7.69
2022-11-26T03:59:46.367Z,7.62
2022-11-26T04:00:46.328Z,7.50
2022-11-26T04:01:46.352Z,7.43
2022-11-26T04:02:46.276Z,7.55
2022-11-26T04:03:46.183Z,7.43
2022-11-26T04:04:46.138Z,7.46
2022-11-26T04:05:46.086Z,7.41
2022-11-26T04:06:46.041Z,7.39
2022-11-26T04:07:46.046Z,7.46
2022-11-26T04:08:45.968Z,7.41
2022-11-26T04:09:45.895Z,7.47
2022-11-26T04:10:45.852Z,7.41
2022-11-26T04:11:45.831Z,7.41
2022-11-26T04:12:45.782Z,7.28
2022-11-26T04:13:45.708Z,7.22
2022-11-26T04:14:45.667Z,7.13
2022-11-26T04:15:45.618Z,7.11
2022-11-26T04:16:45.611Z,7.13
2022-11-26T04:17:45.561Z,7.14
2022-11-26T04:18:45.479Z,7.08
2022-11-26T04:19:45.432Z,7.15
2022-11-26T04:20:50.012Z,7.03
2022-11-26T04:21:45.331Z,7.05
2022-11-26T04:22:45.285Z,7.01
2022-11-26T04:23:45.255Z,7.03
2022-11-26T04:24:45.191Z,7.08
2022-11-26T04:25:45.143Z,6.97
2022-11-26T04:26:45.098Z,6.96
2022-11-26T04:27:45.051Z,6.95
2022-11-26T04:28:45.002Z,7.00
2022-11-26T04:29:44.988Z,6.90
2022-11-26T04:30:44.906Z,6.87
2022-11-26T04:31:44.918Z,6.96
2022-11-26T04:32:44.812Z,6.89
2022-11-26T04:33:44.766Z,6.90
2022-11-26T04:34:44.719Z,6.86
2022-11-26T04:35:44.695Z,6.89
2022-11-26T04:36:44.627Z,6.85
2022-11-26T04:37:44.580Z,6.72
2022-11-26T04:38:44.529Z,6.78
2022-11-26T04:39:44.527Z,6.72
2022-11-26T04:40:44.432Z,6.80
2022-11-26T04:41:44.386Z,6.74
2022-11-26T04:42:44.344Z,6.80
2022-11-26T04:43:44.291Z,6.67
2022-11-26T04:44:44.243Z,6.72
2022-11-26T04:45:44.385Z,6.77
2022-11-26T04:46:44.150Z,6.68
2022-11-26T04:47:44.103Z,6.68
2022-11-26T04:48:44.082Z,6.68
2022-11-26T04:49:44.025Z,6.54
2022-11-26T04:50:43.957Z,6.59
2022-11-26T04:51:43.941Z,6.57
2022-11-26T04:52:43.859Z,6.56
2022-11-26T04:53:43.815Z,6.47
2022-11-26T04:54:43.770Z,6.39
2022-11-26T04:55:43.722Z,6.36
2022-11-26T04:56:43.671Z,6.25
2022-11-26T04:57:43.672Z,6.26
2022-11-26T04:58:43.576Z,6.31
2022-11-26T04:59:43.536Z,6.25
2022-11-26T05:00:43.568Z,6.28
2022-11-26T05:01:43.598Z,6.22
2022-11-26T05:02:43.415Z,6.20
2022-11-26T05:03:43.366Z,6.22
2022-11-26T05:04:43.296Z,6.26
2022-11-26T05:05:43.246Z,6.19
2022-11-26T05:06:43.198Z,6.28
2022-11-26T05:07:43.240Z,6.20
2022-11-26T05:08:43.098Z,6.26
2022-11-26T05:09:43.081Z,6.20
2022-11-26T05:10:43.013Z,6.19
2022-11-26T05:11:42.958Z,6.20
2022-11-26T05:12:42.910Z,6.26
2022-11-26T05:13:42.868Z,6.26
2022-11-26T05:14:42.817Z,6.26
2022-11-26T05:15:42.789Z,6.25
2022-11-26T05:16:42.775Z,6.36
2022-11-26T05:17:42.676Z,6.34
2022-11-26T05:18:42.624Z,6.34
2022-11-26T05:19:42.583Z,6.43
2022-11-26T05:20:42.546Z,6.36
2022-11-26T05:21:42.486Z,6.39
2022-11-26T05:22:42.439Z,6.43
2022-11-26T05:23:42.393Z,6.32
2022-11-26T05:24:42.341Z,6.36
2022-11-26T05:25:42.293Z,6.38
2022-11-26T05:26:42.262Z,6.41
2022-11-26T05:27:42.203Z,6.43
2022-11-26T05:28:42.148Z,6.44
2022-11-26T05:29:42.103Z,6.44
2022-11-26T05:30:42.055Z,6.50
2022-11-26T05:31:42.070Z,6.49
2022-11-26T05:32:41.986Z,6.53
2022-11-26T05:33:41.918Z,6.52
2022-11-26T05:34:41.892Z,6.54
2022-11-26T05:35:41.818Z,6.59
2022-11-26T05:36:41.776Z,6.62
2022-11-26T05:37:41.753Z,6.68
2022-11-26T05:38:41.710Z,6.67
2022-11-26T05:39:41.632Z,6.75
2022-11-26T05:40:41.586Z,6.71
2022-11-26T05:41:41.536Z,6.72
2022-11-26T05:42:41.496Z,6.80
2022-11-26T05:43:41.440Z,6.71
2022-11-26T05:44:41.634Z,6.75
2022-11-26T05:45:41.400Z,6.77
2022-11-26T05:46:41.295Z,6.77
2022-11-26T05:47:41.250Z,6.82
2022-11-26T05:48:41.222Z,6.89
2022-11-26T05:49:41.188Z,6.78
2022-11-26T05:50:41.117Z,6.75
2022-11-26T05:51:41.063Z,6.75
2022-11-26T05:52:41.017Z,6.72
2022-11-26T05:53:40.978Z,6.74
2022-11-26T05:54:41.071Z,6.75
2022-11-26T05:55:40.895Z,6.72
2022-11-26T05:56:40.827Z,6.70
2022-11-26T05:57:40.782Z,6.67
2022-11-26T05:58:40.735Z,6.68
2022-11-26T05:59:40.690Z,6.62
2022-11-26T06:03:47.641Z,6.52
2022-11-26T06:04:47.192Z,6.43
2022-11-26T06:05:47.414Z,6.39
2022-11-26T06:06:47.123Z,6.35
2022-11-26T06:07:47.293Z,6.36
2022-11-26T06:08:47.003Z,6.26
2022-11-26T06:09:47.224Z,6.32
2022-11-26T06:10:46.907Z,6.28
2022-11-26T06:11:47.063Z,6.31
2022-11-26T06:12:46.822Z,6.20
2022-11-26T06:13:46.841Z,6.26
2022-11-26T06:14:47.067Z,6.22
2022-11-26T06:15:47.069Z,6.16
2022-11-26T06:16:46.707Z,6.29
2022-11-26T06:17:46.672Z,6.26
2022-11-26T06:18:46.541Z,6.25
2022-11-26T06:19:46.705Z,6.25
2022-11-26T06:20:46.428Z,6.25
2022-11-26T06:21:46.494Z,6.32
2022-11-26T06:22:46.333Z,6.28
2022-11-26T06:23:54.367Z,6.34
2022-11-26T06:24:46.238Z,6.31
2022-11-26T06:25:46.321Z,6.20
2022-11-26T06:26:46.145Z,6.16
2022-11-26T06:27:46.541Z,6.19
2022-11-26T06:28:46.058Z,6.25
2022-11-26T06:29:46.139Z,6.20
2022-11-26T06:30:45.980Z,6.20
2022-11-26T06:31:46.377Z,6.31
2022-11-26T06:32:45.880Z,6.25
2022-11-26T06:33:45.967Z,6.32
2022-11-26T06:34:48.755Z,6.31
2022-11-26T06:35:45.975Z,6.26
2022-11-26T06:36:45.666Z,6.29
2022-11-26T06:37:45.788Z,6.26
2022-11-26T06:38:45.570Z,6.34
2022-11-26T06:39:45.811Z,6.36
2022-11-26T06:40:45.500Z,6.39
2022-11-26T06:41:45.614Z,6.41
2022-11-26T06:42:45.667Z,6.41
2022-11-26T06:43:45.423Z,6.44
2022-11-26T06:44:45.313Z,6.46
2022-11-26T06:45:45.483Z,6.44
2022-11-26T06:46:45.193Z,6.47
2022-11-26T06:47:45.249Z,6.53
2022-11-26T06:48:45.096Z,6.57
2022-11-26T06:49:45.469Z,6.56
2022-11-26T06:50:45.032Z,6.56
2022-11-26T06:51:45.104Z,6.71
2022-11-26T06:52:44.908Z,6.70
2022-11-26T06:53:45.085Z,6.75
2022-11-26T06:54:44.942Z,6.83
2022-11-26T06:55:44.900Z,6.95
2022-11-26T06:56:44.715Z,6.90
2022-11-26T06:57:44.911Z,6.87
2022-11-26T06:58:44.734Z,6.92
2022-11-26T06:59:44.577Z,6.90
2022-11-26T07:00:44.730Z,6.86
2022-11-26T07:01:44.523Z,6.83
2022-11-26T07:02:44.597Z,6.92
2022-11-26T07:03:44.390Z,6.96
2022-11-26T07:04:44.341Z,6.87
2022-11-26T07:05:44.558Z,6.86
2022-11-26T07:06:44.456Z,6.87
2022-11-26T07:07:44.353Z,6.96
2022-11-26T07:08:44.181Z,6.95
2022-11-26T07:09:44.388Z,6.85
2022-11-26T07:10:48.858Z,6.87
2022-11-26T07:11:44.242Z,6.80
2022-11-26T07:12:44.225Z,6.83
2022-11-26T07:13:43.918Z,6.89
2022-11-26T07:14:44.013Z,6.87
2022-11-26T07:15:44.094Z,6.82
2022-11-26T07:16:43.775Z,6.90
2022-11-26T07:17:43.769Z,6.87
2022-11-26T07:18:43.876Z,6.82
2022-11-26T07:19:43.631Z,6.74
2022-11-26T07:20:43.854Z,6.89
2022-11-26T07:21:43.539Z,6.90
2022-11-26T07:22:43.713Z,6.89
2022-11-26T07:23:43.685Z,6.90
2022-11-26T07:24:43.400Z,7.00
2022-11-26T07:25:43.484Z,7.03
2022-11-26T07:26:43.302Z,7.08
2022-11-26T07:27:43.492Z,7.19
2022-11-26T07:28:43.497Z,7.25
2022-11-26T07:29:43.158Z,7.31
2022-11-26T07:30:43.310Z,7.31
2022-11-26T07:31:43.157Z,7.46
2022-11-26T07:32:43.121Z,7.40
2022-11-26T07:33:43.176Z,7.44
2022-11-26T07:34:42.931Z,7.51
2022-11-26T07:35:42.890Z,7.59
2022-11-26T07:36:42.968Z,7.55
2022-11-26T07:37:42.791Z,7.69
2022-11-26T07:38:42.964Z,7.64
2022-11-26T07:39:42.814Z,7.67
2022-11-26T07:40:42.654Z,7.80
2022-11-26T07:41:42.626Z,7.75
2022-11-26T07:42:42.999Z,7.88
2022-11-26T07:43:42.506Z,7.91
2022-11-26T07:44:43.616Z,7.93
2022-11-26T07:45:42.443Z,7.91
2022-11-26T07:46:42.460Z,8.09
2022-11-26T07:47:42.330Z,8.01
2022-11-26T07:48:42.440Z,8.13
2022-11-26T07:49:42.220Z,8.20
2022-11-26T07:50:43.459Z,8.34
2022-11-26T07:51:42.138Z,8.32
2022-11-26T07:52:42.245Z,8.35
2022-11-26T07:53:42.294Z,8.49
2022-11-26T07:54:42.277Z,8.41
2022-11-26T07:55:41.951Z,8.46
2022-11-26T07:56:42.117Z,8.54
2022-11-26T07:57:41.854Z,8.41
2022-11-26T07:58:42.900Z,8.56
2022-11-26T07:59:41.787Z,8.49
2022-11-26T08:00:42.914Z,8.42
2022-11-26T08:01:41.756Z,8.52
2022-11-26T08:02:41.989Z,8.59
2022-11-26T08:03:41.600Z,8.71
2022-11-26T08:04:41.712Z,8.60
2022-11-26T08:05:41.773Z,8.68
2022-11-26T08:06:41.781Z,8.66
2022-11-26T08:07:41.484Z,8.75
2022-11-26T08:08:41.549Z,8.71
2022-11-26T08:09:41.400Z,8.74
2022-11-26T08:10:43.396Z,8.72
2022-11-26T08:11:41.235Z,8.74
2022-11-26T08:12:41.362Z,8.81
2022-11-26T08:13:41.116Z,8.81
2022-11-26T08:14:41.293Z,8.93
2022-11-26T08:15:41.016Z,8.78
2022-11-26T08:16:41.448Z,8.82
2022-11-26T08:17:40.925Z,8.90
2022-11-26T08:18:40.998Z,8.87
2022-11-26T08:19:40.838Z,8.79
2022-11-26T08:20:41.028Z,8.93
2022-11-26T08:21:40.742Z,8.96
2022-11-26T08:22:41.036Z,8.97
2022-11-26T08:23:40.668Z,8.95
2022-11-26T08:24:41.123Z,8.95
2022-11-26T08:25:59.274Z,8.87
2022-11-26T08:26:44.081Z,8.89
2022-11-26T08:27:40.860Z,8.79
2022-11-26T08:28:40.421Z,8.77
2022-11-26T08:29:40.372Z,8.78
2022-11-26T08:30:40.473Z,8.78
2022-11-26T08:31:45.182Z,8.71
2022-11-26T08:32:40.502Z,8.59
2022-11-26T08:33:40.214Z,8.41
2022-11-26T08:34:40.524Z,8.28
2022-11-26T08:36:05.381Z,8.41
2022-11-26T08:36:40.050Z,8.21
2022-11-26T08:37:42.399Z,8.17
2022-11-26T08:38:39.958Z,8.09
2022-11-26T08:39:40.340Z,8.02
2022-11-26T08:40:39.863Z,8.08
2022-11-26T08:41:39.817Z,7.90
2022-11-26T08:42:40.970Z,7.91
2022-11-26T08:44:05.049Z,7.95
2022-11-26T08:44:40.310Z,7.81
2022-11-26T08:45:39.627Z,7.91
2022-11-26T08:46:39.894Z,7.85
2022-11-26T08:47:39.787Z,7.90
2022-11-26T08:48:39.493Z,7.88
2022-11-26T08:49:40.376Z,7.93
2022-11-26T08:50:39.643Z,7.85
2022-11-26T08:51:40.632Z,7.87
2022-11-26T08:52:39.308Z,7.85
2022-11-26T08:53:39.263Z,7.99
2022-11-26T08:54:44.699Z,7.93
2022-11-26T08:55:59.224Z,7.95
2022-11-26T08:56:39.244Z,7.95
2022-11-26T08:57:39.234Z,7.93
2022-11-26T08:58:40.316Z,7.98
2022-11-26T08:59:39.005Z,8.02
2022-11-26T09:00:39.057Z,7.98
2022-11-26T09:01:38.931Z,7.87
2022-11-26T09:02:39.118Z,7.98
2022-11-26T09:03:38.793Z,8.01
2022-11-26T09:04:39.101Z,8.05
2022-11-26T09:05:38.696Z,8.14
2022-11-26T09:06:38.894Z,8.20
2022-11-26T09:07:38.678Z,8.24
2022-11-26T09:08:38.608Z,8.27
2022-11-26T09:09:38.516Z,8.35
2022-11-26T09:10:38.624Z,8.39
2022-11-26T09:11:40.570Z,8.42
2022-11-26T09:12:39.726Z,8.53
2022-11-26T09:13:38.540Z,8.50
2022-11-26T09:14:38.453Z,8.53
2022-11-26T09:15:38.604Z,8.72
2022-11-26T09:16:38.283Z,8.81
2022-11-26T09:17:38.140Z,8.79
2022-11-26T09:18:38.375Z,8.96
2022-11-26T09:19:38.053Z,8.99
2022-11-26T09:20:38.179Z,9.00
2022-11-26T09:21:37.958Z,9.19
2022-11-26T09:22:38.195Z,9.27
2022-11-26T09:23:38.002Z,9.27
2022-11-26T09:24:38.320Z,9.44
2022-11-26T09:25:38.010Z,9.51
2022-11-26T09:26:37.730Z,9.55
2022-11-26T09:27:37.816Z,9.64
2022-11-26T09:28:37.631Z,9.87
2022-11-26T09:29:37.597Z,9.82
2022-11-26T09:30:37.842Z,9.87
2022-11-26T09:31:49.760Z,9.94
2022-11-26T09:32:37.526Z,10.07
2022-11-26T09:33:38.693Z,10.23
2022-11-26T09:34:37.550Z,10.27
2022-11-26T09:35:37.318Z,10.43
2022-11-26T09:36:37.683Z,10.57
2022-11-26T09:37:37.227Z,10.76
2022-11-26T09:38:37.489Z,10.97
2022-11-26T09:39:37.138Z,11.10
2022-11-26T09:40:37.300Z,11.27
2022-11-26T09:41:37.047Z,11.41
2022-11-26T09:42:37.329Z,11.58
2022-11-26T09:43:36.951Z,11.70
2022-11-26T09:44:37.345Z,11.73
2022-11-26T09:45:36.917Z,11.73
2022-11-26T09:46:51.000Z,11.80
2022-11-26T09:47:36.783Z,11.81
2022-11-26T09:48:37.157Z,11.85
2022-11-26T09:49:36.691Z,11.89
2022-11-26T09:50:36.960Z,11.93
2022-11-26T09:51:36.619Z,11.97
2022-11-26T09:52:36.558Z,11.93
2022-11-26T09:53:36.777Z,12.05
2022-11-26T09:54:36.961Z,11.99
2022-11-26T09:55:36.582Z,12.12
2022-11-26T09:56:36.384Z,12.08
2022-11-26T09:57:36.602Z,12.15
2022-11-26T09:58:36.611Z,12.25
2022-11-26T09:59:36.245Z,12.21
2022-11-26T10:00:36.626Z,12.32
2022-11-26T10:01:36.219Z,12.28
2022-11-26T10:02:36.475Z,12.35
2022-11-26T10:03:36.077Z,12.33
2022-11-26T10:04:36.311Z,12.35
2022-11-26T10:05:37.282Z,12.30
2022-11-26T10:06:35.938Z,12.35
2022-11-26T10:07:36.107Z,12.44
2022-11-26T10:08:36.121Z,12.51
2022-11-26T10:09:37.099Z,12.48
2022-11-26T10:10:35.883Z,12.51
2022-11-26T10:11:35.716Z,12.61
2022-11-26T10:12:46.010Z,12.62
2022-11-26T10:13:35.629Z,12.58
2022-11-26T10:14:35.709Z,12.57
2022-11-26T10:15:35.534Z,12.32
2022-11-26T10:16:35.505Z,12.26
2022-11-26T10:17:35.723Z,12.14
2022-11-26T10:18:35.577Z,12.14
2022-11-26T10:19:35.535Z,12.11
2022-11-26T10:20:35.351Z,11.99
2022-11-26T10:21:57.493Z,12.02
2022-11-26T10:22:35.352Z,12.03
2022-11-26T10:23:35.208Z,12.00
2022-11-26T10:24:35.366Z,12.02
2022-11-26T10:25:35.099Z,12.05
2022-11-26T10:26:35.176Z,12.11
2022-11-26T10:27:35.008Z,12.11
2022-11-26T10:28:34.961Z,12.14
2022-11-26T10:29:35.400Z,12.17
2022-11-26T10:30:34.876Z,12.17
2022-11-26T10:31:35.126Z,12.20
2022-11-26T10:32:34.792Z,12.18
2022-11-26T10:33:34.917Z,12.20
2022-11-26T10:34:38.865Z,12.20
2022-11-26T10:35:34.726Z,12.14
2022-11-26T10:36:34.608Z,12.15
2022-11-26T10:37:34.745Z,11.97
2022-11-26T10:38:34.533Z,11.89
2022-11-26T10:39:34.758Z,12.00
2022-11-26T10:40:34.427Z,12.05
2022-11-26T10:41:34.578Z,11.99
2022-11-26T10:42:34.344Z,12.02
2022-11-26T10:43:34.375Z,12.02
2022-11-26T10:44:34.252Z,12.07
2022-11-26T10:45:34.397Z,12.08
2022-11-26T10:46:34.222Z,12.14
2022-11-26T10:47:34.410Z,12.12
2022-11-26T10:48:34.077Z,12.15
2022-11-26T10:49:34.223Z,12.17
2022-11-26T10:51:34.028Z,12.00
2022-11-26T10:52:34.031Z,12.02
2022-11-26T10:53:33.886Z,12.11
2022-11-26T10:54:33.844Z,12.15
2022-11-26T10:55:33.798Z,12.21
2022-11-26T10:56:33.871Z,12.18
2022-11-26T10:57:33.692Z,12.26
2022-11-26T10:58:33.633Z,12.36
2022-11-26T10:59:34.013Z,12.35
2022-11-26T11:00:33.697Z,12.53
2022-11-26T11:01:33.785Z,12.51
2022-11-26T11:02:33.497Z,12.53
2022-11-26T11:04:06.013Z,12.58
2022-11-26T11:04:33.506Z,12.63
2022-11-26T11:05:33.367Z,12.63
2022-11-26T11:06:33.316Z,12.72
2022-11-26T11:07:33.241Z,12.73
2022-11-26T11:08:33.330Z,12.81
2022-11-26T11:09:33.147Z,12.94
2022-11-26T11:10:33.098Z,13.06
2022-11-26T11:11:33.354Z,12.99
2022-11-26T11:12:33.010Z,12.90
2022-11-26T11:13:33.166Z,12.98
2022-11-26T11:14:32.931Z,13.05
2022-11-26T11:15:32.973Z,13.11
2022-11-26T11:16:33.064Z,13.11
2022-11-26T11:17:32.831Z,13.20
2022-11-26T11:18:32.996Z,13.27
2022-11-26T11:19:32.711Z,13.30
2022-11-26T11:20:33.856Z,13.23
2022-11-26T11:21:32.624Z,13.30
2022-11-26T11:22:32.629Z,13.23
2022-11-26T11:24:00.048Z,13.20
2022-11-26T11:24:32.490Z,13.17
2022-11-26T11:25:33.669Z,13.06
2022-11-26T11:26:32.397Z,13.06
2022-11-26T11:27:32.449Z,13.02
2022-11-26T11:28:32.513Z,12.98
2022-11-26T11:29:32.471Z,12.75
2022-11-26T11:30:32.225Z,12.69
2022-11-26T11:31:32.497Z,12.68
2022-11-26T11:32:32.136Z,12.75
2022-11-26T11:33:32.284Z,12.61
2022-11-26T11:34:32.070Z,12.65
2022-11-26T11:35:32.009Z,12.75
2022-11-26T11:36:32.105Z,12.81
2022-11-26T11:37:31.974Z,12.81
2022-11-26T11:38:31.922Z,12.80
2022-11-26T11:39:31.831Z,12.73
2022-11-26T11:40:32.135Z,12.83
2022-11-26T11:41:31.740Z,12.78
2022-11-26T11:42:31.738Z,12.75
2022-11-26T11:43:31.653Z,12.78
2022-11-26T11:44:31.756Z,12.70
2022-11-26T11:45:31.619Z,12.65
2022-11-26T11:46:31.764Z,12.61
2022-11-26T11:47:31.475Z,12.61
2022-11-26T11:48:31.575Z,12.65
2022-11-26T11:49:31.390Z,12.66
2022-11-26T11:50:31.421Z,12.66
2022-11-26T11:51:31.300Z,12.62
2022-11-26T11:52:31.602Z,12.66
2022-11-26T11:53:31.212Z,12.62
2022-11-26T11:54:31.217Z,12.76
2022-11-26T11:55:31.121Z,12.75
2022-11-26T11:56:31.231Z,12.70
2022-11-26T11:57:31.029Z,12.65
2022-11-26T11:58:31.241Z,12.65
2022-11-26T11:59:30.949Z,12.78
2022-11-26T12:00:31.071Z,12.84
2022-11-26T12:01:30.869Z,12.95
2022-11-26T12:02:39.421Z,13.02
2022-11-26T12:03:38.884Z,13.06
2022-11-26T12:04:39.130Z,13.17
2022-11-26T12:05:30.679Z,13.27
2022-11-26T12:06:30.702Z,13.27
2022-11-26T12:07:30.649Z,13.36
2022-11-26T12:08:30.697Z,13.42
2022-11-26T12:09:30.569Z,13.50
2022-11-26T12:10:35.285Z,13.45
2022-11-26T12:11:30.415Z,13.55
2022-11-26T12:12:30.531Z,13.58
2022-11-26T12:13:30.332Z,13.68
2022-11-26T12:14:30.338Z,13.76
2022-11-26T12:15:30.391Z,13.86
2022-11-26T12:16:30.509Z,13.86
2022-11-26T12:17:33.234Z,13.87
2022-11-26T12:18:30.159Z,13.97
2022-11-26T12:19:30.066Z,13.85
2022-11-26T12:20:30.177Z,13.83
2022-11-26T12:21:30.017Z,13.87
2022-11-26T12:22:29.991Z,14.00
2022-11-26T12:23:29.996Z,14.00
2022-11-26T12:24:29.855Z,13.86
2022-11-26T12:25:35.026Z,13.87
2022-11-26T12:26:29.755Z,14.01
2022-11-26T12:27:31.078Z,13.97
2022-11-26T12:28:29.674Z,13.91
2022-11-26T12:29:29.629Z,13.95
2022-11-26T12:30:29.586Z,13.85
2022-11-26T12:31:29.693Z,13.91
2022-11-26T12:32:29.590Z,13.87
2022-11-26T12:33:29.653Z,13.91
2022-11-26T12:34:29.429Z,13.97
2022-11-26T12:35:29.368Z,13.98
2022-11-26T12:36:29.471Z,14.16
2022-11-26T12:37:29.280Z,14.18
2022-11-26T12:38:29.282Z,14.18
2022-11-26T12:39:29.340Z,14.25
2022-11-26T12:40:29.293Z,14.22
2022-11-26T12:41:30.324Z,14.31
2022-11-26T12:42:29.067Z,14.34
2022-11-26T12:43:29.085Z,14.55
2022-11-26T12:44:28.977Z,14.68
2022-11-26T12:45:29.161Z,14.82
2022-11-26T12:46:28.889Z,14.86
2022-11-26T12:47:28.844Z,14.97
2022-11-26T12:48:28.951Z,15.05
2022-11-26T12:49:28.762Z,15.11
2022-11-26T12:50:28.958Z,15.22
2022-11-26T12:51:28.837Z,15.41
2022-11-26T12:52:28.769Z,15.51
2022-11-26T12:53:28.781Z,15.76
2022-11-26T12:54:28.544Z,16.09
2022-11-26T12:55:28.592Z,16.44
2022-11-26T12:56:28.462Z,16.84
2022-11-26T12:57:28.603Z,17.35
2022-11-26T12:58:28.375Z,17.94
2022-11-26T12:59:28.337Z,18.45
2022-11-26T13:00:32.747Z,18.85
2022-11-26T13:01:28.300Z,19.17
2022-11-26T13:02:28.455Z,19.29
2022-11-26T13:03:28.283Z,19.44
2022-11-26T13:04:43.551Z,19.59
2022-11-26T13:05:28.250Z,19.84
2022-11-26T13:06:28.054Z,20.21
2022-11-26T13:07:28.354Z,20.40
2022-11-26T13:08:27.977Z,20.44
2022-11-26T13:09:28.075Z,20.36
2022-11-26T13:10:27.909Z,20.55
2022-11-26T13:11:27.860Z,20.74
2022-11-26T13:12:27.889Z,21.03
2022-11-26T13:13:27.948Z,20.90
2022-11-26T13:14:27.901Z,21.05
2022-11-26T13:15:27.726Z,21.05